createdAt,value
2022-10-09T00:02:12.143Z,0.30
2022-10-09T00:05:13.979Z,0.28
2022-10-09T00:08:15.413Z,0.30
2022-10-09T00:14:19.848Z,0.30
2022-10-09T00:20:23.353Z,0.20
2022-10-09T00:23:24.838Z,0.30
2022-10-09T00:26:26.624Z,0.40
2022-10-09T00:29:28.042Z,0.28
2022-10-09T00:38:33.338Z,0.45
2022-10-09T00:41:34.736Z,0.30
2022-10-09T00:47:57.408Z,0.30
2022-10-09T00:51:00.741Z,0.30
2022-10-09T00:54:04.241Z,0.22
2022-10-09T00:57:06.202Z,0.20
2022-10-09T01:00:11.459Z,0.30
2022-10-09T01:03:13.614Z,0.50
2022-10-09T01:06:19.456Z,0.28
2022-10-09T01:09:29.687Z,0.40
2022-10-09T01:12:41.528Z,0.40
2022-10-09T01:15:48.840Z,0.30
2022-10-09T01:18:57.385Z,0.10
2022-10-09T01:22:11.282Z,0.30
2022-10-09T01:25:19.417Z,0.38
2022-10-09T01:28:28.089Z,0.43
2022-10-09T01:31:33.700Z,0.20
2022-10-09T01:34:36.647Z,0.20
2022-10-09T01:37:39.868Z,0.30
2022-10-09T01:40:42.050Z,0.40
2022-10-09T01:43:44.031Z,0.20
2022-10-09T01:46:46.238Z,0.20
2022-10-09T01:49:53.764Z,0.28
2022-10-09T01:52:59.294Z,0.20
2022-10-09T01:56:05.707Z,0.28
2022-10-09T01:59:15.832Z,0.25
2022-10-09T02:02:18.912Z,0.30
2022-10-09T02:05:22.672Z,0.30
2022-10-09T02:08:25.357Z,0.22
2022-10-09T02:11:31.227Z,0.22
2022-10-09T02:14:34.433Z,0.28
2022-10-09T02:17:42.536Z,0.20
2022-10-09T02:20:48.476Z,0.10
2022-10-09T02:23:51.449Z,0.28
2022-10-09T02:26:54.268Z,0.40
2022-10-09T02:29:58.370Z,0.38
2022-10-09T02:32:59.836Z,0.20
2022-10-09T02:39:04.906Z,0.20
2022-10-09T02:42:06.306Z,0.25
2022-10-09T02:45:09.657Z,0.15
2022-10-09T02:48:11.079Z,0.30
2022-10-09T02:54:17.110Z,0.20
2022-10-09T02:57:18.500Z,0.20
2022-10-09T03:00:20.552Z,0.20
2022-10-09T03:03:22.176Z,0.20
2022-10-09T03:06:25.084Z,0.20
2022-10-09T03:09:29.218Z,0.20
2022-10-09T03:12:34.307Z,0.20
2022-10-09T03:18:38.131Z,0.20
2022-10-09T03:21:39.500Z,0.20
2022-10-09T03:24:44.083Z,0.22
2022-10-09T03:27:45.465Z,0.30
2022-10-09T03:33:48.837Z,0.30
2022-10-09T03:39:51.469Z,0.20
2022-10-09T03:45:57.373Z,0.20
2022-10-09T03:49:01.792Z,0.30
2022-10-09T03:55:05.554Z,0.20
2022-10-09T03:58:07.366Z,0.20
2022-10-09T04:01:12.606Z,0.28
2022-10-09T04:04:14.329Z,0.25
2022-10-09T04:07:15.839Z,0.30
2022-10-09T04:13:18.572Z,0.10
2022-10-09T04:19:21.847Z,0.25
2022-10-09T04:25:24.718Z,0.22
2022-10-09T04:28:27.346Z,0.20
2022-10-09T04:31:29.778Z,0.30
2022-10-09T04:34:31.191Z,0.20
2022-10-09T04:40:33.963Z,0.20
2022-10-09T04:46:37.257Z,0.15
2022-10-09T04:49:39.003Z,0.20
2022-10-09T04:52:40.455Z,0.30
2022-10-09T04:58:45.661Z,0.10
2022-10-09T05:01:47.851Z,0.20
2022-10-09T05:04:49.299Z,0.15
2022-10-09T05:10:52.151Z,0.25
2022-10-09T05:17:13.802Z,0.10
2022-10-09T05:20:16.399Z,0.20
2022-10-09T05:23:17.808Z,0.25
2022-10-09T05:29:24.753Z,0.30
2022-10-09T05:35:28.117Z,0.22
2022-10-09T05:38:30.357Z,0.30
2022-10-09T05:41:31.910Z,0.40
2022-10-09T05:44:33.399Z,0.20
2022-10-09T05:50:36.673Z,0.30
2022-10-09T05:56:40.606Z,0.20
2022-10-09T05:59:42.016Z,0.20
2022-10-09T06:02:44.146Z,0.20
2022-10-09T06:05:45.589Z,0.22
2022-10-09T06:11:50.054Z,0.20
2022-10-09T06:14:51.573Z,0.20
2022-10-09T06:20:55.419Z,0.30
2022-10-09T06:23:58.826Z,0.20
2022-10-09T06:27:00.442Z,0.25
2022-10-09T06:30:01.928Z,0.20
2022-10-09T06:36:10.264Z,0.40
2022-10-09T06:39:12.061Z,0.20
2022-10-09T06:45:25.365Z,0.30
2022-10-09T06:48:30.135Z,0.40
2022-10-09T06:51:32.556Z,0.40
2022-10-09T06:54:34.107Z,0.30
2022-10-09T07:00:36.814Z,0.13
2022-10-09T07:06:43.523Z,0.20
2022-10-09T07:09:45.005Z,0.30
2022-10-09T07:15:48.281Z,0.30
2022-10-09T07:21:52.240Z,0.22
2022-10-09T07:24:53.643Z,0.20
2022-10-09T07:30:56.698Z,0.32
2022-10-09T07:33:59.080Z,0.32
2022-10-09T07:37:00.561Z,0.20
2022-10-09T07:43:03.368Z,0.30
2022-10-09T07:49:08.860Z,0.20
2022-10-09T07:52:10.272Z,0.20
2022-10-09T07:58:13.424Z,0.20
2022-10-09T08:01:19.647Z,0.20
2022-10-09T08:04:25.487Z,0.20
2022-10-09T08:07:29.358Z,0.20
2022-10-09T08:10:34.651Z,0.20
2022-10-09T08:13:36.073Z,0.20
2022-10-09T08:19:39.403Z,0.10
2022-10-09T08:22:40.814Z,0.20
2022-10-09T08:28:46.970Z,0.10
2022-10-09T08:31:48.508Z,0.30
2022-10-09T08:37:53.321Z,0.10
2022-10-09T08:44:04.223Z,0.20
2022-10-09T08:47:11.614Z,0.30
2022-10-09T08:50:18.165Z,0.20
2022-10-09T08:53:32.627Z,0.30
2022-10-09T08:56:34.899Z,0.30
2022-10-09T08:59:36.698Z,0.10
2022-10-09T09:03:00.699Z,0.28
2022-10-09T09:06:12.245Z,0.20
2022-10-09T09:12:33.337Z,0.30
2022-10-09T09:15:44.200Z,0.20
2022-10-09T09:19:00.360Z,0.10
2022-10-09T09:22:03.548Z,0.28
2022-10-09T09:25:19.104Z,0.30
2022-10-09T09:28:25.863Z,0.20
2022-10-09T09:31:31.210Z,0.30
2022-10-09T09:34:38.324Z,0.20
2022-10-09T09:37:40.455Z,0.20
2022-10-09T09:40:46.979Z,0.20
2022-10-09T09:43:48.967Z,0.20
2022-10-09T09:46:50.471Z,0.10
2022-10-09T09:49:54.946Z,0.30
2022-10-09T09:53:00.251Z,0.20
2022-10-09T09:56:01.972Z,0.20
2022-10-09T09:59:04.053Z,0.20
2022-10-09T10:02:12.787Z,0.20
2022-10-09T10:05:19.944Z,0.20
2022-10-09T10:08:24.859Z,0.10
2022-10-09T10:11:26.548Z,0.20
2022-10-09T10:14:28.832Z,0.30
2022-10-09T10:17:31.880Z,0.20
2022-10-09T10:20:43.585Z,0.20
2022-10-09T10:23:51.508Z,0.30
2022-10-09T10:26:58.145Z,0.25
2022-10-09T10:30:03.018Z,0.20
2022-10-09T10:33:13.777Z,0.20
2022-10-09T10:36:15.408Z,0.10
2022-10-09T10:39:23.850Z,0.20
2022-10-09T10:42:31.091Z,0.20
2022-10-09T10:45:39.102Z,0.20
2022-10-09T10:48:42.424Z,0.20
2022-10-09T10:51:56.305Z,0.20
2022-10-09T10:55:15.566Z,0.20
2022-10-09T10:58:24.581Z,0.20
2022-10-09T11:01:34.640Z,0.20
2022-10-09T11:04:47.076Z,0.17
2022-10-09T11:08:02.553Z,0.10
2022-10-09T11:11:11.965Z,0.30
2022-10-09T11:14:25.644Z,0.20
2022-10-09T11:17:33.870Z,0.10
2022-10-09T11:20:51.526Z,0.13
2022-10-09T11:24:07.746Z,0.30
2022-10-09T11:27:15.265Z,0.30
2022-10-09T11:30:17.914Z,0.20
2022-10-09T11:33:29.917Z,0.20
2022-10-09T11:36:37.143Z,0.20
2022-10-09T11:39:40.035Z,0.10
2022-10-09T11:42:44.516Z,0.15
2022-10-09T11:45:52.336Z,0.20
2022-10-09T11:49:01.101Z,0.10
2022-10-09T11:52:14.100Z,0.10
2022-10-09T11:55:17.911Z,0.28
2022-10-09T11:58:23.494Z,0.20
2022-10-09T12:01:30.990Z,0.20
2022-10-09T12:08:07.747Z,0.15
2022-10-09T12:11:13.077Z,0.20
2022-10-09T12:14:24.378Z,0.20
2022-10-09T12:17:34.262Z,0.20
2022-10-09T12:20:36.811Z,0.20
2022-10-09T12:23:39.537Z,0.10
2022-10-09T12:26:41.384Z,0.10
2022-10-09T12:29:46.620Z,0.10
2022-10-09T12:32:53.578Z,0.20
2022-10-09T12:36:04.388Z,0.13
2022-10-09T12:39:18.108Z,0.20
2022-10-09T12:42:22.512Z,0.20
2022-10-09T12:45:26.841Z,0.20
2022-10-09T12:48:34.855Z,0.10
2022-10-09T12:51:36.388Z,0.20
2022-10-09T12:54:43.054Z,0.30
2022-10-09T12:57:44.777Z,0.22
2022-10-09T13:00:49.417Z,0.10
2022-10-09T13:03:54.220Z,0.28
2022-10-09T13:06:56.411Z,0.20
2022-10-09T13:10:03.582Z,0.30
2022-10-09T13:13:05.133Z,0.20
2022-10-09T13:16:09.874Z,0.20
2022-10-09T13:19:21.854Z,0.20
2022-10-09T13:22:24.647Z,0.28
2022-10-09T13:25:31.130Z,0.20
2022-10-09T13:28:32.671Z,0.13
2022-10-09T13:31:36.144Z,0.20
2022-10-09T13:34:37.582Z,0.20
2022-10-09T13:40:41.234Z,0.10
2022-10-09T13:43:42.655Z,0.20
2022-10-09T13:49:49.648Z,0.20
2022-10-09T13:52:52.189Z,0.13
2022-10-09T13:55:58.454Z,0.15
2022-10-09T13:59:02.471Z,0.30
2022-10-09T14:02:04.433Z,0.20
2022-10-09T14:05:06.343Z,0.17
2022-10-09T14:08:07.736Z,0.30
2022-10-09T14:14:10.682Z,0.20
2022-10-09T14:17:13.809Z,0.20
2022-10-09T14:20:15.341Z,0.20
2022-10-09T14:23:16.740Z,0.20
2022-10-09T14:29:19.610Z,0.10
2022-10-09T14:32:21.826Z,0.20
2022-10-09T14:35:23.605Z,0.20
2022-10-09T14:38:25.058Z,0.20
2022-10-09T14:41:27.568Z,0.20
2022-10-09T14:44:29.099Z,0.30
2022-10-09T14:47:31.211Z,0.10
2022-10-09T14:50:35.204Z,0.10
2022-10-09T14:53:36.642Z,0.22
2022-10-09T14:56:38.565Z,0.20
2022-10-09T14:59:40.078Z,0.10
2022-10-09T15:05:44.587Z,0.20
2022-10-09T15:08:45.980Z,0.20
2022-10-09T15:14:48.954Z,0.20
2022-10-09T15:17:51.421Z,0.20
2022-10-09T15:20:53.506Z,0.30
2022-10-09T15:23:56.106Z,0.25
2022-10-09T15:26:57.572Z,0.30
2022-10-09T15:29:58.978Z,0.20
2022-10-09T15:33:02.142Z,0.32
2022-10-09T15:36:03.751Z,0.30
2022-10-09T15:39:07.004Z,0.30
2022-10-09T15:42:08.724Z,0.20
2022-10-09T15:45:10.264Z,0.20
2022-10-09T15:48:16.011Z,0.20
2022-10-09T15:51:18.317Z,0.30
2022-10-09T15:54:19.748Z,0.20
2022-10-09T15:57:21.169Z,0.30
2022-10-09T16:06:26.023Z,0.20
2022-10-09T16:09:31.896Z,0.20
2022-10-09T16:12:36.597Z,0.20
2022-10-09T16:15:40.147Z,0.15
2022-10-09T16:18:42.278Z,0.20
2022-10-09T16:21:43.641Z,0.20
2022-10-09T16:27:46.472Z,0.20
2022-10-09T16:30:47.926Z,0.20
2022-10-09T16:33:50.194Z,0.20
2022-10-09T16:36:51.700Z,0.30
2022-10-09T16:39:53.104Z,0.22
2022-10-09T16:46:09.394Z,0.40
2022-10-09T16:49:17.159Z,0.30
2022-10-09T16:52:20.269Z,0.30
2022-10-09T16:55:22.775Z,0.30
2022-10-09T16:58:24.386Z,0.45
2022-10-09T17:01:26.997Z,0.77
2022-10-09T17:04:29.548Z,0.20
2022-10-09T17:07:31.119Z,0.40
2022-10-09T17:10:32.519Z,0.20
2022-10-09T17:16:37.982Z,0.20
2022-10-09T17:19:40.561Z,0.35
2022-10-09T17:22:41.985Z,0.30
2022-10-09T17:28:48.027Z,0.30
2022-10-09T17:31:50.104Z,0.40
2022-10-09T17:34:52.039Z,0.30
2022-10-09T17:37:56.969Z,0.30
2022-10-09T17:40:58.852Z,0.60
2022-10-09T17:44:03.913Z,0.47
2022-10-09T17:47:08.318Z,0.38
2022-10-09T17:50:14.332Z,0.50
2022-10-09T17:53:15.849Z,0.38
2022-10-09T17:56:17.714Z,0.40
2022-10-09T17:59:19.203Z,0.40
2022-10-09T18:02:20.722Z,0.32
2022-10-09T18:05:22.973Z,0.40
2022-10-09T18:08:25.823Z,0.50
2022-10-09T18:11:27.744Z,0.40
2022-10-09T18:14:29.357Z,0.50
2022-10-09T18:17:32.719Z,0.40
2022-10-09T18:20:35.209Z,0.35
2022-10-09T18:23:36.939Z,0.40
2022-10-09T18:26:39.071Z,0.47
2022-10-09T18:29:40.562Z,0.40
2022-10-09T18:32:45.077Z,0.40
2022-10-09T18:35:47.191Z,0.40
2022-10-09T18:38:50.516Z,0.47
2022-10-09T18:41:54.955Z,0.50
2022-10-09T18:44:56.958Z,0.40
2022-10-09T18:47:59.089Z,0.50
2022-10-09T18:51:02.400Z,0.50
2022-10-09T18:54:06.092Z,0.38
2022-10-09T18:57:08.433Z,0.63
2022-10-09T19:00:11.016Z,0.40
2022-10-09T19:03:12.471Z,0.40
2022-10-09T19:06:14.638Z,0.55
2022-10-09T19:09:16.065Z,0.40
2022-10-09T19:12:18.890Z,0.30
2022-10-09T19:15:24.122Z,0.40
2022-10-09T19:18:26.482Z,0.57
2022-10-09T19:21:31.685Z,0.40
2022-10-09T19:24:34.419Z,0.30
2022-10-09T19:27:36.131Z,0.40
2022-10-09T19:30:39.228Z,0.47
2022-10-09T19:33:41.629Z,0.45
2022-10-09T19:36:46.540Z,0.50
2022-10-09T19:39:48.011Z,0.45
2022-10-09T19:42:49.542Z,0.25
2022-10-09T19:46:00.645Z,0.43
2022-10-09T19:49:02.919Z,0.40
2022-10-09T19:52:05.464Z,0.75
2022-10-09T19:55:07.389Z,0.50
2022-10-09T19:58:08.821Z,0.43
2022-10-09T20:01:10.970Z,0.57
2022-10-09T20:04:12.370Z,0.60
2022-10-09T20:10:16.074Z,0.70
2022-10-09T20:13:17.484Z,0.63
2022-10-09T20:19:20.746Z,0.70
2022-10-09T20:25:26.140Z,0.50
2022-10-09T20:28:29.954Z,0.63
2022-10-09T20:31:31.629Z,0.50
2022-10-09T20:34:33.003Z,0.50
2022-10-09T20:40:36.250Z,0.50
2022-10-09T20:49:42.832Z,0.40
2022-10-09T20:52:48.427Z,0.50
2022-10-09T20:55:50.033Z,0.63
2022-10-09T21:01:52.869Z,0.50
2022-10-09T21:04:54.585Z,0.60
2022-10-09T21:07:56.627Z,0.60
2022-10-09T21:10:58.604Z,0.50
2022-10-09T21:14:00.569Z,0.70
2022-10-09T21:17:02.140Z,0.50
2022-10-09T21:20:04.183Z,0.50
2022-10-09T21:23:07.446Z,0.80
2022-10-09T21:26:11.875Z,0.30
2022-10-09T21:29:13.915Z,0.40
2022-10-09T21:32:15.358Z,0.60
2022-10-09T21:38:20.599Z,0.50
2022-10-09T21:41:22.091Z,0.60
2022-10-09T21:44:23.542Z,0.50
2022-10-09T21:50:26.494Z,0.55
2022-10-09T21:53:28.636Z,0.50
2022-10-09T21:56:30.186Z,0.47
2022-10-09T21:59:34.968Z,0.43
2022-10-09T22:02:36.708Z,0.47
2022-10-09T22:05:39.490Z,0.50
2022-10-09T22:08:42.089Z,0.50
2022-10-09T22:11:43.819Z,0.50
2022-10-09T22:14:45.333Z,0.50
2022-10-09T22:17:49.885Z,0.40
2022-10-09T22:20:51.609Z,0.60
2022-10-09T22:23:56.730Z,0.50
2022-10-09T22:26:59.692Z,0.40
2022-10-09T22:30:03.361Z,0.40
2022-10-09T22:33:04.971Z,0.57
2022-10-09T22:36:08.543Z,0.50
2022-10-09T22:39:11.344Z,0.50
2022-10-09T22:42:12.747Z,0.50
2022-10-09T22:48:15.592Z,0.50
2022-10-09T22:51:19.038Z,0.40
2022-10-09T22:54:21.634Z,0.60
2022-10-09T22:57:23.062Z,0.60
2022-10-09T23:03:25.864Z,0.47
2022-10-09T23:09:31.436Z,0.35
2022-10-09T23:12:32.867Z,0.50
2022-10-09T23:18:39.425Z,0.38
2022-10-09T23:21:42.530Z,0.60
2022-10-09T23:24:47.573Z,0.30
2022-10-09T23:27:49.010Z,0.40
2022-10-09T23:33:51.980Z,0.47
2022-10-09T23:36:53.348Z,0.50
2022-10-09T23:42:56.571Z,0.40
2022-10-09T23:49:01.259Z,0.38
2022-10-09T23:52:02.863Z,0.63
2022-10-09T23:55:05.705Z,0.50
2022-10-09T23:58:07.175Z,0.40
